Time;durP1;ratioP1;P1;durP2;ratioP2;P2;SDS_P1;SDS_P2;PMS_P1;PMS_P2;Temp;Humidity;BMP_temperature;BMP_pressure;BME280_temperature;BME280_humidity;BME280_pressure;Samples;Min_cycle;Max_cycle;Signal;HPM_P1;HPM_P2
2023/03/08 00:00:22;;;;;;;9.27;6.32;;;;;;;6.08;61.40;100021.34;5121396;28;20059;-60
2023/03/08 00:02:52;;;;;;;10.43;6.82;;;;;;;6.07;61.40;100017.88;5117154;28;20043;-60
2023/03/08 00:05:20;;;;;;;11.95;6.78;;;;;;;6.05;61.40;100016.44;5117141;28;20052;-61
2023/03/08 00:07:48;;;;;;;9.63;6.30;;;;;;;6.07;61.36;100019.72;5108595;28;20055;-60
2023/03/08 00:10:15;;;;;;;9.30;6.68;;;;;;;6.05;61.26;100014.59;5121868;27;20119;-60
2023/03/08 00:12:43;;;;;;;10.85;6.95;;;;;;;6.06;61.36;100018.91;5129009;28;20123;-60
2023/03/08 00:15:11;;;;;;;9.93;6.63;;;;;;;6.04;61.38;100014.81;5124538;28;20327;-60
2023/03/08 00:17:39;;;;;;;7.28;5.40;;;;;;;6.06;61.39;100016.22;5128871;28;20099;-60
2023/03/08 00:20:11;;;;;;;10.52;7.18;;;;;;;6.04;61.51;100006.81;5122336;27;20083;-60
2023/03/08 00:22:40;;;;;;;9.60;6.28;;;;;;;6.03;61.17;100002.50;5121137;28;20058;-60
2023/03/08 00:25:09;;;;;;;9.65;6.93;;;;;;;6.06;61.50;100015.41;5125031;28;20078;-56
2023/03/08 00:27:38;;;;;;;12.25;7.15;;;;;;;6.05;61.21;100011.09;5123488;27;20103;-60
2023/03/08 00:30:07;;;;;;;11.10;7.25;;;;;;;6.04;61.50;100018.28;5116663;28;20040;-60
2023/03/08 00:32:34;;;;;;;11.65;7.10;;;;;;;6.03;61.56;100011.31;5121042;27;20258;-60
2023/03/08 00:35:02;;;;;;;11.68;6.82;;;;;;;6.03;61.59;100007.84;5120218;28;20107;-60
2023/03/08 00:37:32;;;;;;;10.05;7.03;;;;;;;6.03;61.66;100007.84;5117405;28;20142;-60
2023/03/08 00:39:59;;;;;;;11.50;7.50;;;;;;;6.02;61.79;100015.03;5124105;27;20051;-60
2023/03/08 00:42:27;;;;;;;10.13;7.80;;;;;;;6.04;61.52;100014.81;5117314;28;20067;-60
2023/03/08 00:44:55;;;;;;;9.65;7.38;;;;;;;6.03;61.63;100010.50;5117738;27;20103;-59
2023/03/08 00:47:23;;;;;;;11.07;7.80;;;;;;;6.02;61.63;100007.03;5124843;28;20075;-61
2023/03/08 00:49:51;;;;;;;10.10;7.43;;;;;;;6.02;61.67;100006.19;5129185;28;20075;-60
2023/03/08 00:52:18;;;;;;;10.45;7.30;;;;;;;6.00;61.86;100006.41;5126416;28;20043;-60
2023/03/08 00:54:47;;;;;;;10.98;7.97;;;;;;;5.98;61.34;100003.13;5120902;27;20051;-60
2023/03/08 00:57:16;;;;;;;12.07;7.78;;;;;;;5.97;61.61;100001.50;5126138;28;20047;-60
2023/03/08 00:59:43;;;;;;;13.98;8.50;;;;;;;5.98;61.80;99999.66;5119939;28;20075;-60
2023/03/08 01:02:11;;;;;;;14.32;8.75;;;;;;;5.98;61.66;99997.81;5119351;27;20342;-59
2023/03/08 01:04:39;;;;;;;12.85;9.02;;;;;;;5.98;61.87;99999.66;5119722;27;20044;-61
2023/03/08 01:07:07;;;;;;;12.00;8.70;;;;;;;5.97;61.82;99996.16;5116154;27;20054;-60
2023/03/08 01:09:34;;;;;;;11.70;8.57;;;;;;;5.95;61.98;99990.22;5128181;28;20531;-60
2023/03/08 01:12:04;;;;;;;14.18;8.68;;;;;;;5.97;61.72;99987.34;5117014;27;20126;-60
2023/03/08 01:14:32;;;;;;;11.20;8.02;;;;;;;5.96;61.84;99981.19;5120885;28;20130;-60
2023/03/08 01:16:59;;;;;;;12.18;8.63;;;;;;;5.96;61.94;99980.38;5120446;28;20047;-60
2023/03/08 01:19:27;;;;;;;13.65;9.23;;;;;;;5.95;61.85;99974.22;5122752;28;20111;-60
2023/03/08 01:21:55;;;;;;;12.35;9.13;;;;;;;5.94;61.86;99972.59;5117179;28;21138;-60
2023/03/08 01:24:23;;;;;;;13.45;9.13;;;;;;;5.94;61.92;99969.09;5112843;28;20075;-60
2023/03/08 01:26:52;;;;;;;14.45;10.30;;;;;;;5.94;61.95;99961.94;5117856;27;20159;-60
2023/03/08 01:29:21;;;;;;;11.77;8.77;;;;;;;5.93;61.92;99956.81;5118572;28;20078;-60
2023/03/08 01:31:49;;;;;;;12.50;8.90;;;;;;;5.93;61.93;99956.81;5119440;28;20071;-60
2023/03/08 01:34:17;;;;;;;14.05;9.77;;;;;;;5.93;61.98;99946.13;5114630;28;20056;-61
2023/03/08 01:36:45;;;;;;;14.88;9.20;;;;;;;5.92;61.96;99939.16;5121132;28;20044;-60
2023/03/08 01:39:12;;;;;;;11.98;8.85;;;;;;;5.91;61.96;99941.03;5120954;28;20046;-60
2023/03/08 01:41:40;;;;;;;10.25;8.43;;;;;;;5.91;61.94;99927.69;5122268;28;20105;-60
2023/03/08 01:44:15;;;;;;;12.23;8.82;;;;;;;5.90;62.02;99930.56;5108120;28;20080;-58
2023/03/08 01:46:45;;;;;;;13.15;9.68;;;;;;;5.90;62.01;99928.72;5120505;28;20122;-60
2023/03/08 01:49:15;;;;;;;13.38;9.38;;;;;;;5.90;62.14;99920.72;5122353;28;20047;-60
2023/03/08 01:51:47;;;;;;;15.18;10.55;;;;;;;5.87;61.91;99919.25;5125726;28;20039;-60
2023/03/08 01:54:17;;;;;;;13.00;9.77;;;;;;;5.88;62.12;99914.75;5123017;27;20417;-60
2023/03/08 01:56:49;;;;;;;13.68;9.68;;;;;;;5.87;61.90;99921.94;5114384;28;20039;-60
2023/03/08 01:59:18;;;;;;;15.73;10.15;;;;;;;5.90;62.10;99922.56;5125177;28;20075;-60
2023/03/08 02:01:47;;;;;;;14.07;10.23;;;;;;;5.88;62.25;99915.56;5123110;28;20071;-60
2023/03/08 02:04:15;;;;;;;12.90;9.55;;;;;;;5.88;62.16;99910.22;5118321;28;20141;-60
2023/03/08 02:06:44;;;;;;;13.55;10.52;;;;;;;5.85;62.22;99910.66;5105496;28;20181;-60
2023/03/08 02:09:12;;;;;;;14.07;10.43;;;;;;;5.84;62.13;99910.88;5112983;28;20035;-60
2023/03/08 02:11:41;;;;;;;14.18;10.07;;;;;;;5.86;62.24;99914.16;5122606;28;20040;-60
2023/03/08 02:14:09;;;;;;;13.50;9.63;;;;;;;5.84;62.43;99905.53;5108489;28;20100;-60
2023/03/08 02:16:37;;;;;;;16.85;11.02;;;;;;;5.83;62.22;99902.06;5111467;28;20035;-60
2023/03/08 02:19:14;;;;;;;13.30;9.57;;;;;;;5.83;62.32;99890.56;5121215;28;20107;-60
2023/03/08 02:21:42;;;;;;;14.45;10.10;;;;;;;5.83;61.97;99882.56;5118520;28;20074;-60
2023/03/08 02:24:21;;;;;;;14.18;9.88;;;;;;;5.81;62.08;99880.13;5119925;27;20055;-59
2023/03/08 02:26:50;;;;;;;14.40;10.27;;;;;;;5.81;62.20;99876.63;5122404;28;20063;-60
2023/03/08 02:29:18;;;;;;;13.00;9.65;;;;;;;5.82;62.10;99884.44;5116130;28;20062;-60
2023/03/08 02:31:46;;;;;;;18.27;10.27;;;;;;;5.82;62.15;99871.09;5110690;28;20052;-61
2023/03/08 02:34:14;;;;;;;15.52;9.90;;;;;;;5.83;62.17;99874.56;5106363;27;20127;-60
2023/03/08 02:36:42;;;;;;;13.15;10.38;;;;;;;5.82;62.35;99863.09;5124513;28;20056;-60
2023/03/08 02:39:09;;;;;;;19.30;10.55;;;;;;;5.82;62.00;99859.63;5121204;28;20043;-60
2023/03/08 02:41:38;;;;;;;14.35;10.07;;;;;;;5.82;61.89;99860.44;5123320;28;20059;-60
2023/03/08 02:44:06;;;;;;;15.07;10.90;;;;;;;5.81;62.18;99852.66;5119591;27;20066;-60
2023/03/08 02:46:34;;;;;;;14.60;11.02;;;;;;;5.81;62.29;99844.66;5115664;28;20168;-60
2023/03/08 02:49:02;;;;;;;13.95;10.43;;;;;;;5.80;62.20;99849.16;5119693;28;20123;-60
2023/03/08 02:51:30;;;;;;;12.70;9.73;;;;;;;5.80;61.90;99854.50;5122104;27;20059;-60
2023/03/08 02:53:58;;;;;;;16.25;11.55;;;;;;;5.82;62.15;99851.63;5112250;28;20071;-60
2023/03/08 02:56:25;;;;;;;13.02;10.00;;;;;;;5.82;62.22;99843.63;5121153;28;20472;-60
2023/03/08 02:58:55;;;;;;;15.50;10.68;;;;;;;5.80;62.19;99837.69;5117529;28;20051;-60
2023/03/08 03:01:23;;;;;;;13.82;10.88;;;;;;;5.83;62.14;99843.41;5119408;28;20058;-60
2023/03/08 03:03:54;;;;;;;17.17;11.50;;;;;;;5.83;61.91;99838.06;5119131;28;20543;-60
2023/03/08 03:06:22;;;;;;;12.77;10.00;;;;;;;5.82;62.26;99838.28;5123412;28;20444;-60
2023/03/08 03:08:50;;;;;;;15.10;10.73;;;;;;;5.81;62.02;99833.97;5115089;28;20044;-60
2023/03/08 03:11:20;;;;;;;12.35;9.63;;;;;;;5.80;62.24;99824.34;5116299;28;20044;-59
2023/03/08 03:13:55;;;;;;;14.48;10.65;;;;;;;5.78;62.49;99826.41;5115892;28;20040;-59
2023/03/08 03:16:24;;;;;;;12.23;9.95;;;;;;;5.78;62.14;99821.91;5113346;28;20132;-60
2023/03/08 03:18:53;;;;;;;14.63;10.13;;;;;;;5.77;62.38;99817.59;5117605;28;20048;-60
2023/03/08 03:21:21;;;;;;;13.73;10.02;;;;;;;5.77;62.20;99814.13;5121900;28;20093;-61
2023/03/08 03:23:49;;;;;;;14.25;10.90;;;;;;;5.77;62.30;99811.44;5114287;28;20070;-60
2023/03/08 03:26:20;;;;;;;13.45;9.57;;;;;;;5.76;62.34;99805.31;5115658;28;20097;-60
2023/03/08 03:28:48;;;;;;;12.23;8.98;;;;;;;5.77;62.16;99798.94;5117924;28;20047;-60
2023/03/08 03:31:19;;;;;;;14.18;10.38;;;;;;;5.76;62.38;99791.97;5111824;28;20103;-61
2023/03/08 03:33:47;;;;;;;12.98;9.60;;;;;;;5.75;62.17;99782.34;5108534;28;20044;-61
2023/03/08 03:36:18;;;;;;;15.27;9.95;;;;;;;5.72;61.93;99774.78;5121491;28;20047;-60
2023/03/08 03:38:47;;;;;;;13.07;9.25;;;;;;;5.73;62.23;99775.59;5120742;28;20126;-60
2023/03/08 03:41:17;;;;;;;13.20;9.40;;;;;;;5.74;62.51;99769.22;5106379;28;20493;-60
2023/03/08 03:43:45;;;;;;;12.98;9.82;;;;;;;5.73;62.52;99772.94;5119553;28;20519;-60
2023/03/08 03:46:15;;;;;;;14.70;10.82;;;;;;;5.73;62.24;99770.25;5115741;28;20048;-60
2023/03/08 03:48:45;;;;;;;14.90;9.80;;;;;;;5.73;62.39;99773.75;5119233;28;20063;-60
2023/03/08 03:51:15;;;;;;;13.35;9.70;;;;;;;5.73;62.73;99778.25;5123040;28;20054;-60
2023/03/08 03:53:43;;;;;;;12.18;9.75;;;;;;;5.72;62.46;99760.63;5117409;28;20075;-60
2023/03/08 03:56:13;;;;;;;12.30;9.65;;;;;;;5.72;62.17;99768.63;5119704;28;20167;-60
2023/03/08 03:58:42;;;;;;;12.50;9.27;;;;;;;5.71;62.40;99767.00;5120308;28;20067;-61
2023/03/08 04:01:11;;;;;;;13.85;9.73;;;;;;;5.70;62.35;99760.84;5111210;28;20115;-60
2023/03/08 04:03:39;;;;;;;12.95;9.98;;;;;;;5.69;62.46;99764.53;5116486;28;20070;-60
2023/03/08 04:06:12;;;;;;;12.77;9.40;;;;;;;5.69;62.29;99756.56;5115036;28;20051;-60
2023/03/08 04:08:41;;;;;;;12.50;9.05;;;;;;;5.60;62.34;99733.88;5115088;28;20065;-60
2023/03/08 04:11:09;;;;;;;12.20;9.20;;;;;;;5.67;62.30;99750.63;5120257;28;20057;-60
2023/03/08 04:13:38;;;;;;;11.73;8.40;;;;;;;5.68;62.36;99754.09;5119461;28;21446;-61
2023/03/08 04:16:10;;;;;;;12.63;9.05;;;;;;;5.68;62.10;99743.44;5119224;28;20134;-60
2023/03/08 04:18:38;;;;;;;14.02;9.38;;;;;;;5.68;62.30;99741.59;5110728;28;20063;-60
2023/03/08 04:21:06;;;;;;;12.95;9.23;;;;;;;5.67;62.55;99731.16;5122494;28;20078;-60
2023/03/08 04:23:36;;;;;;;10.57;8.15;;;;;;;5.67;62.50;99731.97;5114767;28;20083;-60
2023/03/08 04:26:04;;;;;;;13.38;9.13;;;;;;;5.66;62.25;99721.53;5116235;28;20107;-61
2023/03/08 04:28:32;;;;;;;12.95;9.30;;;;;;;5.67;62.39;99717.81;5115229;28;20063;-60
2023/03/08 04:31:01;;;;;;;12.23;9.23;;;;;;;5.65;62.51;99710.03;5109009;28;20072;-60
2023/03/08 04:33:28;;;;;;;14.30;9.00;;;;;;;5.66;62.37;99714.34;5120502;28;20070;-60
2023/03/08 04:35:56;;;;;;;12.80;9.68;;;;;;;5.65;62.44;99704.72;5134795;28;20047;-60
2023/03/08 04:38:24;;;;;;;12.52;9.10;;;;;;;5.64;62.50;99703.06;5115981;28;20078;-60
2023/03/08 04:41:04;;;;;;;13.05;8.52;;;;;;;5.64;62.57;99696.94;5118902;28;20052;-60
2023/03/08 04:43:33;;;;;;;12.07;8.60;;;;;;;5.64;62.54;99696.94;5115900;28;20402;-60
2023/03/08 04:46:01;;;;;;;10.73;8.55;;;;;;;5.63;62.44;99695.31;5112841;28;20056;-60
2023/03/08 04:48:29;;;;;;;10.98;8.30;;;;;;;5.63;62.40;99693.44;5115351;28;20062;-60
2023/03/08 04:50:59;;;;;;;12.90;9.45;;;;;;;5.60;62.66;99688.56;5112720;28;20079;-60
2023/03/08 04:53:28;;;;;;;11.18;8.70;;;;;;;5.62;62.36;99685.66;5117171;28;20058;-60
2023/03/08 04:55:59;;;;;;;12.75;9.02;;;;;;;5.63;62.35;99679.31;5121798;28;20115;-60
2023/03/08 04:58:27;;;;;;;12.77;8.85;;;;;;;5.65;62.59;99679.91;5121404;28;20154;-60
2023/03/08 05:00:56;;;;;;;11.77;8.48;;;;;;;5.64;62.53;99667.63;5113746;28;20063;-60
2023/03/08 05:03:23;;;;;;;11.68;8.07;;;;;;;5.61;62.82;99658.19;5123283;28;20127;-60
2023/03/08 05:05:53;;;;;;;12.38;8.65;;;;;;;5.63;62.58;99661.47;5119680;28;20573;-60
2023/03/08 05:08:22;;;;;;;11.48;8.55;;;;;;;5.62;62.63;99649.19;5121837;28;20043;-60
2023/03/08 05:10:53;;;;;;;16.90;8.50;;;;;;;5.61;62.73;99644.88;5111678;28;20448;-60
2023/03/08 05:13:22;;;;;;;11.20;8.95;;;;;;;5.62;62.48;99635.03;5120543;28;20083;-60
2023/03/08 05:15:50;;;;;;;13.18;9.52;;;;;;;5.63;62.34;99634.81;5123214;28;20039;-60
2023/03/08 05:18:18;;;;;;;11.70;8.82;;;;;;;5.62;62.28;99629.69;5116791;28;20142;-60
2023/03/08 05:20:53;;;;;;;12.85;8.50;;;;;;;5.63;62.70;99626.81;5122585;28;20044;-60
2023/03/08 05:23:21;;;;;;;11.75;8.38;;;;;;;5.62;62.61;99627.84;5121272;28;20123;-60
2023/03/08 05:25:52;;;;;;;14.02;9.65;;;;;;;5.62;62.42;99624.38;5121234;27;20043;-60
2023/03/08 05:28:22;;;;;;;11.80;8.77;;;;;;;5.60;62.61;99621.13;5120345;28;20075;-60
2023/03/08 05:30:50;;;;;;;10.80;8.13;;;;;;;5.61;62.63;99609.41;5121390;28;20050;-60
2023/03/08 05:33:18;;;;;;;11.77;8.23;;;;;;;5.60;62.39;99605.13;5117261;28;20115;-60
2023/03/08 05:35:54;;;;;;;12.10;8.75;;;;;;;5.60;62.46;99605.94;5118860;28;20081;-59
2023/03/08 05:38:22;;;;;;;11.57;8.32;;;;;;;5.60;62.98;99591.78;5119096;27;20054;-59
2023/03/08 05:40:50;;;;;;;13.32;8.43;;;;;;;5.58;62.52;99584.03;5118031;28;20044;-59
2023/03/08 05:43:18;;;;;;;11.57;8.75;;;;;;;5.58;62.29;99581.34;5113230;27;20051;-60
2023/03/08 05:45:57;;;;;;;11.32;8.32;;;;;;;5.57;62.51;99567.22;5122987;28;20047;-60
2023/03/08 05:48:25;;;;;;;11.77;8.00;;;;;;;5.56;62.46;99565.59;5119122;28;20089;-60
2023/03/08 05:50:53;;;;;;;12.05;7.82;;;;;;;5.56;62.46;99564.78;5121617;28;20083;-60
2023/03/08 05:53:22;;;;;;;11.27;8.52;;;;;;;5.54;62.27;99549.00;5123452;28;20054;-60
2023/03/08 05:55:50;;;;;;;13.05;9.60;;;;;;;5.54;62.62;99545.53;5123243;28;20044;-60
2023/03/08 05:58:17;;;;;;;11.43;8.27;;;;;;;5.53;62.14;99541.22;5122763;28;20051;-60
2023/03/08 06:00:45;;;;;;;10.65;7.95;;;;;;;5.53;62.28;99530.56;5124562;28;20071;-60
2023/03/08 06:03:14;;;;;;;11.13;8.27;;;;;;;5.56;62.50;99530.13;5119718;28;20052;-60
2023/03/08 06:05:42;;;;;;;12.27;7.60;;;;;;;5.68;61.86;99533.69;5119937;27;20055;-59
2023/03/08 06:08:10;;;;;;;11.48;7.95;;;;;;;5.82;61.54;99515.69;5123857;28;20069;-60
2023/03/08 06:10:37;;;;;;;11.40;7.75;;;;;;;5.94;60.79;99527.25;5125379;28;20075;-60
2023/03/08 06:13:05;;;;;;;10.07;7.35;;;;;;;5.95;60.88;99517.41;5117068;28;20074;-60
2023/03/08 06:15:33;;;;;;;12.65;9.35;;;;;;;5.98;60.74;99519.63;5124440;28;20531;-60
2023/03/08 06:18:02;;;;;;;10.75;8.20;;;;;;;5.94;60.58;99519.25;5117359;28;20059;-61
2023/03/08 06:20:31;;;;;;;13.85;8.70;;;;;;;5.97;60.78;99520.66;5121341;28;20048;-61
2023/03/08 06:22:59;;;;;;;11.10;8.07;;;;;;;6.11;60.25;99519.47;5111970;28;20052;-60
2023/03/08 06:25:27;;;;;;;12.15;8.60;;;;;;;6.21;59.51;99519.75;5120026;28;20507;-59
2023/03/08 06:27:55;;;;;;;11.70;8.07;;;;;;;6.23;59.92;99517.66;5116593;27;20048;-60
2023/03/08 06:30:23;;;;;;;11.95;8.23;;;;;;;6.19;59.71;99511.16;5122521;28;20508;-59
2023/03/08 06:32:50;;;;;;;14.63;7.90;;;;;;;6.11;60.18;99506.13;5121670;28;20051;-60
2023/03/08 06:35:18;;;;;;;12.50;8.02;;;;;;;6.00;60.12;99497.03;5122079;28;20065;-63
2023/03/08 06:37:47;;;;;;;11.63;8.15;;;;;;;5.94;60.51;99499.78;5116886;28;20055;-61
2023/03/08 06:40:15;;;;;;;12.60;7.85;;;;;;;5.87;60.81;99497.16;5118731;28;20062;-61
2023/03/08 06:42:43;;;;;;;10.43;7.85;;;;;;;5.81;60.87;99495.41;5115085;28;20072;-62
2023/03/08 06:45:11;;;;;;;10.32;7.45;;;;;;;5.77;60.89;99491.56;5111476;28;20089;-61
2023/03/08 06:47:39;;;;;;;8.65;6.55;;;;;;;5.73;61.23;99498.38;5115466;28;20056;-60
2023/03/08 06:50:08;;;;;;;10.50;7.95;;;;;;;5.66;60.85;99501.09;4761670;28;10000511;-61
2023/03/08 06:52:36;;;;;;;11.80;7.93;;;;;;;5.66;61.27;99505.63;5119464;28;20591;-61
2023/03/08 06:55:06;;;;;;;9.55;6.60;;;;;;;5.63;61.41;99503.41;5120056;28;20044;-61
2023/03/08 06:57:34;;;;;;;11.15;7.18;;;;;;;5.60;61.34;99501.19;5116002;28;20767;-60
2023/03/08 07:00:03;;;;;;;9.35;6.63;;;;;;;5.59;61.56;99511.03;5107290;28;20048;-62
2023/03/08 07:02:30;;;;;;;11.55;7.13;;;;;;;5.55;61.77;99510.66;5119154;28;20052;-61
2023/03/08 07:04:58;;;;;;;10.32;7.28;;;;;;;5.50;61.40;99499.84;5116061;28;20212;-63
2023/03/08 07:07:26;;;;;;;8.23;6.15;;;;;;;5.51;61.73;99492.69;5113439;28;20065;-63
2023/03/08 07:09:54;;;;;;;9.25;6.68;;;;;;;5.48;61.45;99490.44;5107404;28;20048;-62
2023/03/08 07:12:23;;;;;;;9.60;6.93;;;;;;;5.40;62.12;99485.41;5122900;28;20052;-60
2023/03/08 07:14:52;;;;;;;10.15;7.03;;;;;;;5.38;61.79;99479.50;5120421;28;20090;-60
2023/03/08 07:17:20;;;;;;;9.45;6.43;;;;;;;5.36;61.72;99481.56;5121248;28;20112;-60
2023/03/08 07:19:48;;;;;;;9.88;6.35;;;;;;;5.35;62.01;99478.09;5111543;28;20053;-61
2023/03/08 07:22:16;;;;;;;10.52;6.45;;;;;;;5.35;61.95;99479.94;5123419;28;20043;-60
2023/03/08 07:24:47;;;;;;;8.75;6.50;;;;;;;5.36;61.65;99478.91;5117559;28;20050;-62
2023/03/08 07:27:16;;;;;;;9.55;6.30;;;;;;;5.33;62.04;99466.84;5114957;28;20077;-61
2023/03/08 07:29:45;;;;;;;8.63;6.28;;;;;;;5.33;61.89;99463.38;5116636;28;20068;-61
2023/03/08 07:32:13;;;;;;;7.63;5.28;;;;;;;5.34;61.89;99454.34;5110661;28;20052;-61
2023/03/08 07:34:41;;;;;;;8.30;5.97;;;;;;;5.32;61.53;99454.56;5112624;28;20050;-61
2023/03/08 07:37:11;;;;;;;8.10;5.65;;;;;;;5.32;61.49;99454.56;5123142;28;20051;-63
2023/03/08 07:39:39;;;;;;;7.55;5.70;;;;;;;5.31;62.03;99452.94;5121683;28;20079;-62
2023/03/08 07:42:07;;;;;;;7.25;5.20;;;;;;;5.32;61.87;99446.56;5116484;28;20048;-61
2023/03/08 07:44:35;;;;;;;7.72;5.43;;;;;;;5.31;61.88;99444.94;5107080;28;20051;-62
2023/03/08 07:47:06;;;;;;;7.28;4.90;;;;;;;5.32;61.45;99451.06;5103548;28;20683;-61
2023/03/08 07:49:34;;;;;;;7.65;5.43;;;;;;;5.32;61.74;99443.09;5113623;28;20362;-60
2023/03/08 07:52:02;;;;;;;8.05;4.88;;;;;;;5.31;61.74;99436.94;5120159;28;20047;-60
2023/03/08 07:54:29;;;;;;;7.15;5.40;;;;;;;5.31;61.90;99441.47;5121595;28;20146;-61
2023/03/08 07:56:57;;;;;;;6.70;4.90;;;;;;;5.32;61.86;99435.09;5114104;28;20052;-61
2023/03/08 07:59:25;;;;;;;7.15;4.90;;;;;;;5.30;61.78;99435.31;5104441;28;20051;-61
2023/03/08 08:01:53;;;;;;;6.95;5.00;;;;;;;5.29;61.87;99422.22;5119904;28;20116;-61
2023/03/08 08:04:22;;;;;;;6.28;4.72;;;;;;;5.29;62.15;99422.22;5114544;28;20479;-58
2023/03/08 08:06:50;;;;;;;6.68;4.53;;;;;;;5.28;61.62;99417.94;5110950;28;20532;-60
2023/03/08 08:09:18;;;;;;;6.03;4.03;;;;;;;5.30;61.58;99421.19;5114379;28;20062;-61
2023/03/08 08:11:46;;;;;;;6.82;4.53;;;;;;;5.29;62.07;99419.56;5116356;28;20121;-60
2023/03/08 08:14:13;;;;;;;6.38;4.20;;;;;;;5.29;61.87;99419.56;5121613;28;20074;-60
2023/03/08 08:16:41;;;;;;;6.10;4.78;;;;;;;5.28;62.00;99409.94;5113838;28;20040;-60
2023/03/08 08:19:11;;;;;;;6.45;4.75;;;;;;;5.27;61.86;99401.13;5116821;28;20119;-60
2023/03/08 08:21:40;;;;;;;5.57;4.05;;;;;;;5.27;61.96;99395.81;5115043;28;20138;-60
2023/03/08 08:24:09;;;;;;;5.88;4.55;;;;;;;5.27;61.98;99390.47;5118113;28;20040;-60
2023/03/08 08:26:36;;;;;;;5.55;3.75;;;;;;;5.26;61.87;99380.06;5115348;28;20070;-60
2023/03/08 08:29:04;;;;;;;5.15;4.05;;;;;;;5.24;62.10;99373.09;5121295;28;20051;-60
2023/03/08 08:31:32;;;;;;;5.28;3.70;;;;;;;5.23;62.05;99370.66;5118549;27;20138;-60
2023/03/08 08:34:01;;;;;;;5.25;3.80;;;;;;;5.22;61.74;99369.84;5116306;28;20048;-60
2023/03/08 08:36:28;;;;;;;5.35;3.83;;;;;;;5.23;62.00;99368.00;5120218;28;20036;-60
2023/03/08 08:38:57;;;;;;;6.20;4.07;;;;;;;5.22;61.60;99369.84;5120263;28;20091;-61
2023/03/08 08:41:26;;;;;;;6.22;4.72;;;;;;;5.21;62.05;99365.56;5116585;28;20039;-61
2023/03/08 08:43:57;;;;;;;5.68;3.80;;;;;;;5.21;62.05;99359.41;5114221;28;20767;-60
2023/03/08 08:46:26;;;;;;;6.78;4.28;;;;;;;5.20;61.77;99361.25;5124197;28;20062;-61
2023/03/08 08:48:54;;;;;;;5.05;3.95;;;;;;;5.21;62.28;99364.75;5118165;28;20124;-60
2023/03/08 08:51:22;;;;;;;6.50;3.95;;;;;;;5.19;62.00;99366.84;5124421;28;20147;-60
2023/03/08 08:53:51;;;;;;;5.00;3.80;;;;;;;5.18;61.98;99366.03;5119676;28;20051;-60
2023/03/08 08:56:22;;;;;;;5.85;4.25;;;;;;;5.18;62.32;99366.03;5123118;28;20039;-60
2023/03/08 08:58:55;;;;;;;7.27;5.17;;;;;;;5.18;61.80;99368.69;5113961;28;20149;-60
2023/03/08 09:01:25;;;;;;;5.63;4.20;;;;;;;5.19;62.13;99377.50;5118777;28;20360;-61
2023/03/08 09:03:53;;;;;;;5.43;4.22;;;;;;;5.25;62.16;99381.91;5118429;28;20513;-60
2023/03/08 09:06:22;;;;;;;6.88;5.05;;;;;;;5.35;61.36;99384.03;5112838;28;20059;-61
2023/03/08 09:08:51;;;;;;;5.78;4.80;;;;;;;5.50;61.22;99393.28;5117818;28;20047;-60
2023/03/08 09:11:21;;;;;;;6.85;5.47;;;;;;;5.65;60.49;99395.53;5119661;28;20452;-60
2023/03/08 09:13:49;;;;;;;6.80;5.03;;;;;;;5.82;60.11;99385.06;5117525;28;20052;-60
2023/03/08 09:16:19;;;;;;;8.75;6.18;;;;;;;6.00;59.37;99373.56;5117084;28;20046;-61
2023/03/08 09:18:47;;;;;;;6.03;4.75;;;;;;;6.18;58.95;99365.47;5120599;28;20050;-61
2023/03/08 09:21:16;;;;;;;7.45;5.82;;;;;;;6.32;58.10;99350.88;5117904;28;20155;-61
2023/03/08 09:23:44;;;;;;;7.10;5.38;;;;;;;6.47;57.78;99339.75;5118614;27;20210;-60
2023/03/08 09:26:12;;;;;;;6.78;5.22;;;;;;;6.64;57.18;99331.84;5123779;28;20058;-61
2023/03/08 09:28:41;;;;;;;7.80;6.13;;;;;;;6.81;56.87;99322.09;5110375;28;20076;-60
2023/03/08 09:31:13;;;;;;;7.82;5.97;;;;;;;6.93;56.49;99317.53;5114058;28;20053;-60
2023/03/08 09:33:43;;;;;;;8.52;6.15;;;;;;;7.02;56.66;99312.63;5118569;28;20084;-60
2023/03/08 09:36:11;;;;;;;10.27;6.80;;;;;;;7.06;56.51;99305.75;5117705;28;20087;-61
2023/03/08 09:38:39;;;;;;;10.02;6.97;;;;;;;7.11;55.95;99309.34;5115177;28;20060;-60
2023/03/08 09:41:31;;;;;;;11.27;7.43;;;;;;;7.16;55.56;99308.63;5111857;27;20067;-61
2023/03/08 09:44:17;;;;;;;11.35;8.50;;;;;;;7.17;55.73;99308.38;5114811;28;20043;-61
2023/03/08 09:46:49;;;;;;;12.25;8.55;;;;;;;7.13;55.24;99299.22;5113572;28;20040;-60
2023/03/08 09:49:22;;;;;;;10.73;8.05;;;;;;;7.15;55.79;99296.31;5110828;28;20093;-60
2023/03/08 09:51:56;;;;;;;13.25;9.43;;;;;;;7.04;56.14;99279.28;5117325;28;20044;-61
2023/03/08 09:54:25;;;;;;;10.85;8.38;;;;;;;6.89;56.18;99291.53;5115873;28;20416;-60
2023/03/08 09:56:55;;;;;;;12.05;8.88;;;;;;;6.64;56.97;99283.81;5117635;27;20584;-60
2023/03/08 09:59:31;;;;;;;13.20;9.80;;;;;;;6.46;57.52;99284.75;5118623;28;20035;-60
2023/03/08 10:02:10;;;;;;;12.05;9.55;;;;;;;6.28;58.51;99287.53;5121365;28;20047;-61
2023/03/08 10:04:58;;;;;;;12.48;9.45;;;;;;;6.14;58.99;99286.97;5119854;28;20504;-60
2023/03/08 10:07:48;;;;;;;12.13;8.55;;;;;;;5.99;58.94;99287.41;5108902;28;20127;-60
2023/03/08 10:10:28;;;;;;;13.98;10.25;;;;;;;5.93;59.43;99279.53;5117580;28;20177;-60
2023/03/08 10:13:07;;;;;;;14.10;10.07;;;;;;;5.85;59.96;99278.78;5110728;27;20075;-60
2023/03/08 10:15:41;;;;;;;13.07;9.38;;;;;;;5.82;59.86;99273.09;5119249;28;20066;-59
2023/03/08 10:18:16;;;;;;;11.10;8.85;;;;;;;5.77;59.97;99297.78;5118993;28;20062;-60
2023/03/08 10:20:45;;;;;;;12.65;9.35;;;;;;;5.74;60.13;99292.09;5114146;27;20050;-60
2023/03/08 10:23:15;;;;;;;14.63;10.15;;;;;;;5.69;60.21;99289.28;5121152;28;20074;-60
2023/03/08 10:25:44;;;;;;;12.73;9.60;;;;;;;5.66;60.69;99289.75;5112597;28;20196;-60
2023/03/08 10:28:14;;;;;;;13.48;9.68;;;;;;;5.62;60.53;99281.41;5117829;28;20060;-61
2023/03/08 10:30:50;;;;;;;13.18;9.90;;;;;;;5.61;60.70;99279.78;5117971;28;20051;-60
2023/03/08 10:33:23;;;;;;;14.57;9.95;;;;;;;5.58;60.74;99274.91;5110470;28;20480;-60
2023/03/08 10:35:56;;;;;;;13.52;9.80;;;;;;;5.56;60.74;99268.97;5118515;28;20260;-61
2023/03/08 10:38:27;;;;;;;12.90;9.63;;;;;;;5.55;60.80;99267.34;5105340;28;20206;-61
2023/03/08 10:41:03;;;;;;;12.82;9.98;;;;;;;5.55;60.89;99264.69;5114868;28;20138;-60
2023/03/08 10:43:33;;;;;;;12.25;9.65;;;;;;;5.50;60.91;99273.38;5113540;28;20058;-61
2023/03/08 10:46:04;;;;;;;13.30;10.00;;;;;;;5.48;60.57;99251.47;5117893;28;20055;-63
2023/03/08 10:48:32;;;;;;;12.98;9.73;;;;;;;5.69;60.39;99243.97;5115202;28;20040;-62
2023/03/08 10:51:02;;;;;;;12.65;9.20;;;;;;;5.85;59.48;99246.78;5123308;28;20055;-62
2023/03/08 10:53:31;;;;;;;14.07;9.82;;;;;;;6.03;59.33;99248.56;5116830;28;20085;-62
2023/03/08 10:56:01;;;;;;;11.77;8.70;;;;;;;6.23;58.67;99240.22;5111889;28;20062;-62
2023/03/08 10:58:33;;;;;;;10.90;8.43;;;;;;;6.35;58.74;99235.69;5109244;27;20040;-62
2023/03/08 11:01:06;;;;;;;11.70;9.05;;;;;;;6.53;57.87;99246.22;5115095;27;20097;-61
2023/03/08 11:03:34;;;;;;;10.60;7.97;;;;;;;6.68;57.29;99271.63;5118859;28;20036;-61
2023/03/08 11:06:03;;;;;;;10.73;8.13;;;;;;;6.83;56.69;99283.44;5116279;28;20070;-61
2023/03/08 11:08:34;;;;;;;9.18;7.40;;;;;;;6.99;56.11;99287.19;5110050;28;20108;-61
2023/03/08 11:11:04;;;;;;;9.85;7.57;;;;;;;7.15;55.37;99274.94;4759194;28;10000094;-62
2023/03/08 11:13:34;;;;;;;9.20;7.63;;;;;;;7.20;55.78;99269.69;5114510;28;20043;-62
2023/03/08 11:16:35;;;;;;;8.80;7.00;;;;;;;7.22;55.22;99267.59;5113926;28;20044;-62
2023/03/08 11:19:11;;;;;;;9.50;6.82;;;;;;;7.24;55.88;99260.16;5102111;28;20139;-62
2023/03/08 11:21:50;;;;;;;7.85;6.25;;;;;;;7.32;55.31;99258.97;5116962;28;20140;-61
2023/03/08 11:24:30;;;;;;;9.20;6.72;;;;;;;7.35;54.82;99253.94;5113872;28;20047;-61
2023/03/08 11:27:15;;;;;;;7.82;6.15;;;;;;;7.34;55.70;99228.28;5116122;28;20058;-62
2023/03/08 11:29:59;;;;;;;7.63;5.60;;;;;;;7.34;54.69;99232.81;5112218;28;20043;-61
2023/03/08 11:32:55;;;;;;;7.25;5.88;;;;;;;7.40;55.22;99246.03;5109244;28;20048;-62
2023/03/08 11:35:31;;;;;;;6.97;5.22;;;;;;;7.40;54.60;99242.53;5111278;28;20507;-62
2023/03/08 11:38:06;;;;;;;6.25;5.18;;;;;;;7.36;54.79;99226.16;5104995;28;20094;-62
2023/03/08 11:40:47;;;;;;;9.43;5.78;;;;;;;7.35;55.65;99239.78;5112771;27;20142;-62
2023/03/08 11:43:30;;;;;;;7.03;5.43;;;;;;;7.38;55.43;99231.28;5110314;28;20047;-63
2023/03/08 11:46:06;;;;;;;8.18;5.25;;;;;;;7.40;55.17;99224.63;5111096;28;20086;-62